sensor_id;sensor_type;location;lat;lon;timestamp;P1;durP1;ratioP1;P2;durP2;ratioP2
62582;SDS011;48641;51.676;5.808;2023-04-28T00:01:27;6.68;;;2.58;;
62582;SDS011;48641;51.676;5.808;2023-04-28T00:03:53;5.55;;;2.45;;
62582;SDS011;48641;51.676;5.808;2023-04-28T00:06:19;5.40;;;2.30;;
62582;SDS011;48641;51.676;5.808;2023-04-28T00:08:44;5.47;;;2.25;;
62582;SDS011;48641;51.676;5.808;2023-04-28T00:11:10;5.50;;;2.38;;
62582;SDS011;48641;51.676;5.808;2023-04-28T00:13:36;5.85;;;2.70;;
62582;SDS011;48641;51.676;5.808;2023-04-28T00:16:02;6.15;;;2.20;;
62582;SDS011;48641;51.676;5.808;2023-04-28T00:18:27;5.43;;;2.35;;
62582;SDS011;48641;51.676;5.808;2023-04-28T00:20:54;6.30;;;2.40;;
62582;SDS011;48641;51.676;5.808;2023-04-28T00:23:19;5.13;;;2.03;;
62582;SDS011;48641;51.676;5.808;2023-04-28T00:25:52;6.05;;;2.60;;
62582;SDS011;48641;51.676;5.808;2023-04-28T00:28:18;5.72;;;2.40;;
62582;SDS011;48641;51.676;5.808;2023-04-28T00:30:44;5.70;;;2.40;;
62582;SDS011;48641;51.676;5.808;2023-04-28T00:33:10;6.38;;;2.65;;
62582;SDS011;48641;51.676;5.808;2023-04-28T00:35:36;5.90;;;2.70;;
62582;SDS011;48641;51.676;5.808;2023-04-28T00:38:02;5.03;;;2.28;;
62582;SDS011;48641;51.676;5.808;2023-04-28T00:40:34;5.72;;;2.58;;
62582;SDS011;48641;51.676;5.808;2023-04-28T00:43:01;4.75;;;2.30;;
62582;SDS011;48641;51.676;5.808;2023-04-28T00:45:27;5.78;;;2.45;;
62582;SDS011;48641;51.676;5.808;2023-04-28T00:47:53;5.05;;;2.22;;
62582;SDS011;48641;51.676;5.808;2023-04-28T00:50:20;4.95;;;2.13;;
62582;SDS011;48641;51.676;5.808;2023-04-28T00:52:46;5.40;;;2.13;;
62582;SDS011;48641;51.676;5.808;2023-04-28T00:55:13;6.25;;;2.30;;
62582;SDS011;48641;51.676;5.808;2023-04-28T00:57:39;6.18;;;2.63;;
62582;SDS011;48641;51.676;5.808;2023-04-28T01:00:06;6.38;;;2.53;;
62582;SDS011;48641;51.676;5.808;2023-04-28T01:02:32;5.80;;;2.70;;
62582;SDS011;48641;51.676;5.808;2023-04-28T01:04:59;6.78;;;2.72;;
62582;SDS011;48641;51.676;5.808;2023-04-28T01:07:26;5.70;;;2.65;;
62582;SDS011;48641;51.676;5.808;2023-04-28T01:09:52;5.28;;;2.45;;
62582;SDS011;48641;51.676;5.808;2023-04-28T01:12:18;6.55;;;2.63;;
62582;SDS011;48641;51.676;5.808;2023-04-28T01:14:44;6.05;;;2.75;;
62582;SDS011;48641;51.676;5.808;2023-04-28T01:17:10;6.07;;;2.65;;
62582;SDS011;48641;51.676;5.808;2023-04-28T01:19:36;5.53;;;2.45;;
62582;SDS011;48641;51.676;5.808;2023-04-28T01:22:01;5.53;;;2.30;;
62582;SDS011;48641;51.676;5.808;2023-04-28T01:24:28;5.63;;;2.55;;
62582;SDS011;48641;51.676;5.808;2023-04-28T01:26:54;5.47;;;2.28;;
62582;SDS011;48641;51.676;5.808;2023-04-28T01:29:19;8.23;;;2.95;;
62582;SDS011;48641;51.676;5.808;2023-04-28T01:31:45;5.72;;;2.47;;
62582;SDS011;48641;51.676;5.808;2023-04-28T01:34:11;6.05;;;2.67;;
62582;SDS011;48641;51.676;5.808;2023-04-28T01:36:36;6.32;;;2.47;;
62582;SDS011;48641;51.676;5.808;2023-04-28T01:39:02;6.70;;;2.70;;
62582;SDS011;48641;51.676;5.808;2023-04-28T01:41:28;5.90;;;2.45;;
62582;SDS011;48641;51.676;5.808;2023-04-28T01:43:54;6.65;;;3.20;;
62582;SDS011;48641;51.676;5.808;2023-04-28T01:46:19;5.90;;;2.60;;
62582;SDS011;48641;51.676;5.808;2023-04-28T01:48:45;6.43;;;3.03;;
62582;SDS011;48641;51.676;5.808;2023-04-28T01:51:11;6.15;;;2.47;;
62582;SDS011;48641;51.676;5.808;2023-04-28T01:53:37;5.57;;;2.30;;
62582;SDS011;48641;51.676;5.808;2023-04-28T01:56:03;6.07;;;2.40;;
62582;SDS011;48641;51.676;5.808;2023-04-28T01:58:28;6.15;;;2.88;;
62582;SDS011;48641;51.676;5.808;2023-04-28T02:00:54;5.07;;;2.38;;
62582;SDS011;48641;51.676;5.808;2023-04-28T02:03:19;5.53;;;2.28;;
62582;SDS011;48641;51.676;5.808;2023-04-28T02:05:45;6.10;;;2.78;;
62582;SDS011;48641;51.676;5.808;2023-04-28T02:08:11;6.57;;;3.10;;
62582;SDS011;48641;51.676;5.808;2023-04-28T02:10:36;6.13;;;2.60;;
62582;SDS011;48641;51.676;5.808;2023-04-28T02:13:02;5.95;;;2.72;;
62582;SDS011;48641;51.676;5.808;2023-04-28T02:15:28;6.00;;;2.50;;
62582;SDS011;48641;51.676;5.808;2023-04-28T02:17:53;6.40;;;2.67;;
62582;SDS011;48641;51.676;5.808;2023-04-28T02:20:19;6.72;;;2.72;;
62582;SDS011;48641;51.676;5.808;2023-04-28T02:22:44;6.28;;;2.90;;
62582;SDS011;48641;51.676;5.808;2023-04-28T02:25:11;6.30;;;2.65;;
62582;SDS011;48641;51.676;5.808;2023-04-28T02:27:36;6.07;;;2.55;;
62582;SDS011;48641;51.676;5.808;2023-04-28T02:30:03;6.80;;;2.58;;
62582;SDS011;48641;51.676;5.808;2023-04-28T02:32:29;6.22;;;2.80;;
62582;SDS011;48641;51.676;5.808;2023-04-28T02:34:55;6.70;;;2.65;;
62582;SDS011;48641;51.676;5.808;2023-04-28T02:37:21;6.30;;;2.88;;
62582;SDS011;48641;51.676;5.808;2023-04-28T02:39:47;6.18;;;2.97;;
62582;SDS011;48641;51.676;5.808;2023-04-28T02:42:12;7.35;;;2.90;;
62582;SDS011;48641;51.676;5.808;2023-04-28T02:44:38;6.47;;;3.17;;
62582;SDS011;48641;51.676;5.808;2023-04-28T02:47:03;6.70;;;2.88;;
62582;SDS011;48641;51.676;5.808;2023-04-28T02:49:29;5.47;;;2.70;;
62582;SDS011;48641;51.676;5.808;2023-04-28T02:51:55;6.55;;;2.83;;
62582;SDS011;48641;51.676;5.808;2023-04-28T02:54:21;6.68;;;2.88;;
62582;SDS011;48641;51.676;5.808;2023-04-28T02:56:52;6.30;;;2.88;;
62582;SDS011;48641;51.676;5.808;2023-04-28T02:59:21;6.13;;;2.67;;
62582;SDS011;48641;51.676;5.808;2023-04-28T03:01:47;5.82;;;2.67;;
62582;SDS011;48641;51.676;5.808;2023-04-28T03:04:13;6.78;;;2.83;;
62582;SDS011;48641;51.676;5.808;2023-04-28T03:06:40;6.68;;;2.70;;
62582;SDS011;48641;51.676;5.808;2023-04-28T03:09:06;6.95;;;3.03;;
62582;SDS011;48641;51.676;5.808;2023-04-28T03:11:32;6.95;;;2.97;;
62582;SDS011;48641;51.676;5.808;2023-04-28T03:13:58;6.05;;;2.75;;
62582;SDS011;48641;51.676;5.808;2023-04-28T03:16:24;6.72;;;3.03;;
62582;SDS011;48641;51.676;5.808;2023-04-28T03:18:50;6.20;;;2.75;;
62582;SDS011;48641;51.676;5.808;2023-04-28T03:21:15;6.45;;;2.55;;
62582;SDS011;48641;51.676;5.808;2023-04-28T03:23:41;6.00;;;2.90;;
62582;SDS011;48641;51.676;5.808;2023-04-28T03:26:06;6.47;;;2.80;;
62582;SDS011;48641;51.676;5.808;2023-04-28T03:28:32;5.43;;;2.63;;
62582;SDS011;48641;51.676;5.808;2023-04-28T03:30:57;6.40;;;2.60;;
62582;SDS011;48641;51.676;5.808;2023-04-28T03:33:23;5.90;;;2.63;;
62582;SDS011;48641;51.676;5.808;2023-04-28T03:35:49;6.97;;;3.08;;
62582;SDS011;48641;51.676;5.808;2023-04-28T03:38:14;6.30;;;2.72;;
62582;SDS011;48641;51.676;5.808;2023-04-28T03:40:40;8.30;;;3.20;;
62582;SDS011;48641;51.676;5.808;2023-04-28T03:43:05;5.95;;;2.67;;
62582;SDS011;48641;51.676;5.808;2023-04-28T03:45:31;6.68;;;2.88;;
62582;SDS011;48641;51.676;5.808;2023-04-28T03:47:57;6.75;;;2.67;;
62582;SDS011;48641;51.676;5.808;2023-04-28T03:50:23;6.20;;;2.75;;
62582;SDS011;48641;51.676;5.808;2023-04-28T03:52:48;7.20;;;2.95;;
62582;SDS011;48641;51.676;5.808;2023-04-28T03:55:14;8.77;;;3.35;;
62582;SDS011;48641;51.676;5.808;2023-04-28T03:57:40;7.38;;;3.00;;
62582;SDS011;48641;51.676;5.808;2023-04-28T04:00:06;6.78;;;3.00;;
62582;SDS011;48641;51.676;5.808;2023-04-28T04:02:32;6.32;;;2.95;;
62582;SDS011;48641;51.676;5.808;2023-04-28T04:04:58;6.47;;;2.97;;
62582;SDS011;48641;51.676;5.808;2023-04-28T04:07:23;6.80;;;3.00;;
62582;SDS011;48641;51.676;5.808;2023-04-28T04:09:49;6.90;;;3.22;;
62582;SDS011;48641;51.676;5.808;2023-04-28T04:12:15;6.55;;;3.05;;
62582;SDS011;48641;51.676;5.808;2023-04-28T04:14:41;7.63;;;2.80;;
62582;SDS011;48641;51.676;5.808;2023-04-28T04:17:07;6.97;;;3.05;;
62582;SDS011;48641;51.676;5.808;2023-04-28T04:19:33;6.68;;;2.90;;
62582;SDS011;48641;51.676;5.808;2023-04-28T04:21:58;6.85;;;2.80;;
62582;SDS011;48641;51.676;5.808;2023-04-28T04:24:24;6.53;;;3.05;;
62582;SDS011;48641;51.676;5.808;2023-04-28T04:26:49;6.72;;;3.03;;
62582;SDS011;48641;51.676;5.808;2023-04-28T04:29:15;6.55;;;2.83;;
62582;SDS011;48641;51.676;5.808;2023-04-28T04:31:40;6.25;;;2.80;;
62582;SDS011;48641;51.676;5.808;2023-04-28T04:34:06;6.55;;;3.30;;
62582;SDS011;48641;51.676;5.808;2023-04-28T04:36:31;6.72;;;2.83;;
62582;SDS011;48641;51.676;5.808;2023-04-28T04:38:57;6.82;;;3.38;;
62582;SDS011;48641;51.676;5.808;2023-04-28T04:41:24;7.00;;;3.08;;
62582;SDS011;48641;51.676;5.808;2023-04-28T04:43:51;6.55;;;2.78;;
62582;SDS011;48641;51.676;5.808;2023-04-28T04:46:16;7.05;;;2.75;;
62582;SDS011;48641;51.676;5.808;2023-04-28T04:48:42;7.35;;;3.55;;
62582;SDS011;48641;51.676;5.808;2023-04-28T04:51:07;6.63;;;3.08;;
62582;SDS011;48641;51.676;5.808;2023-04-28T04:53:33;6.50;;;3.08;;
62582;SDS011;48641;51.676;5.808;2023-04-28T04:55:59;7.47;;;3.00;;
62582;SDS011;48641;51.676;5.808;2023-04-28T04:58:24;6.53;;;3.05;;
62582;SDS011;48641;51.676;5.808;2023-04-28T05:00:50;8.25;;;3.45;;
62582;SDS011;48641;51.676;5.808;2023-04-28T05:03:16;6.97;;;3.10;;
62582;SDS011;48641;51.676;5.808;2023-04-28T05:05:41;6.65;;;3.00;;
62582;SDS011;48641;51.676;5.808;2023-04-28T05:08:09;6.80;;;3.08;;
62582;SDS011;48641;51.676;5.808;2023-04-28T05:10:35;7.28;;;3.28;;
62582;SDS011;48641;51.676;5.808;2023-04-28T05:13:01;8.27;;;2.97;;
62582;SDS011;48641;51.676;5.808;2023-04-28T05:15:26;6.45;;;2.80;;
62582;SDS011;48641;51.676;5.808;2023-04-28T05:17:52;7.40;;;2.85;;
62582;SDS011;48641;51.676;5.808;2023-04-28T05:20:17;6.47;;;3.22;;
62582;SDS011;48641;51.676;5.808;2023-04-28T05:22:43;6.68;;;3.20;;
62582;SDS011;48641;51.676;5.808;2023-04-28T05:25:08;7.47;;;3.03;;
62582;SDS011;48641;51.676;5.808;2023-04-28T05:27:34;6.82;;;3.05;;
62582;SDS011;48641;51.676;5.808;2023-04-28T05:30:03;7.20;;;2.75;;
62582;SDS011;48641;51.676;5.808;2023-04-28T05:32:30;6.93;;;3.38;;
62582;SDS011;48641;51.676;5.808;2023-04-28T05:34:55;6.25;;;2.70;;
62582;SDS011;48641;51.676;5.808;2023-04-28T05:37:21;6.40;;;2.90;;
62582;SDS011;48641;51.676;5.808;2023-04-28T05:39:46;6.72;;;2.85;;
62582;SDS011;48641;51.676;5.808;2023-04-28T05:42:12;7.43;;;3.28;;
62582;SDS011;48641;51.676;5.808;2023-04-28T05:44:37;7.13;;;2.92;;
62582;SDS011;48641;51.676;5.808;2023-04-28T05:47:03;7.07;;;3.25;;
62582;SDS011;48641;51.676;5.808;2023-04-28T05:49:29;7.00;;;2.90;;
62582;SDS011;48641;51.676;5.808;2023-04-28T05:51:54;6.82;;;2.92;;
62582;SDS011;48641;51.676;5.808;2023-04-28T05:54:20;6.78;;;3.17;;
62582;SDS011;48641;51.676;5.808;2023-04-28T05:56:45;8.20;;;3.20;;
62582;SDS011;48641;51.676;5.808;2023-04-28T05:59:11;7.30;;;3.17;;
62582;SDS011;48641;51.676;5.808;2023-04-28T06:01:37;6.53;;;2.70;;
62582;SDS011;48641;51.676;5.808;2023-04-28T06:04:02;6.55;;;3.00;;
62582;SDS011;48641;51.676;5.808;2023-04-28T06:06:28;6.78;;;2.85;;
62582;SDS011;48641;51.676;5.808;2023-04-28T06:08:54;7.07;;;3.13;;
62582;SDS011;48641;51.676;5.808;2023-04-28T06:11:20;6.97;;;3.15;;
62582;SDS011;48641;51.676;5.808;2023-04-28T06:13:46;6.90;;;2.90;;
62582;SDS011;48641;51.676;5.808;2023-04-28T06:16:13;6.80;;;2.63;;
62582;SDS011;48641;51.676;5.808;2023-04-28T06:18:40;6.38;;;2.75;;
62582;SDS011;48641;51.676;5.808;2023-04-28T06:21:05;6.55;;;3.05;;
62582;SDS011;48641;51.676;5.808;2023-04-28T06:23:31;8.05;;;3.42;;
62582;SDS011;48641;51.676;5.808;2023-04-28T06:25:56;5.88;;;2.67;;
62582;SDS011;48641;51.676;5.808;2023-04-28T06:28:22;6.75;;;2.95;;
62582;SDS011;48641;51.676;5.808;2023-04-28T06:30:47;6.40;;;2.90;;
62582;SDS011;48641;51.676;5.808;2023-04-28T06:33:13;7.07;;;3.33;;
62582;SDS011;48641;51.676;5.808;2023-04-28T06:35:38;6.97;;;3.05;;
62582;SDS011;48641;51.676;5.808;2023-04-28T06:38:05;6.07;;;2.83;;
62582;SDS011;48641;51.676;5.808;2023-04-28T06:40:31;6.10;;;2.78;;
62582;SDS011;48641;51.676;5.808;2023-04-28T06:42:56;6.40;;;3.05;;
62582;SDS011;48641;51.676;5.808;2023-04-28T06:45:22;8.00;;;3.15;;
62582;SDS011;48641;51.676;5.808;2023-04-28T06:47:47;5.47;;;2.70;;
62582;SDS011;48641;51.676;5.808;2023-04-28T06:50:13;6.00;;;2.80;;
62582;SDS011;48641;51.676;5.808;2023-04-28T06:52:39;6.30;;;3.10;;
62582;SDS011;48641;51.676;5.808;2023-04-28T06:55:05;6.25;;;2.85;;
62582;SDS011;48641;51.676;5.808;2023-04-28T06:57:32;7.15;;;3.10;;
62582;SDS011;48641;51.676;5.808;2023-04-28T06:59:57;6.80;;;2.85;;
62582;SDS011;48641;51.676;5.808;2023-04-28T07:02:23;5.88;;;2.70;;
62582;SDS011;48641;51.676;5.808;2023-04-28T07:04:48;5.75;;;2.47;;
62582;SDS011;48641;51.676;5.808;2023-04-28T07:07:14;6.38;;;2.80;;
62582;SDS011;48641;51.676;5.808;2023-04-28T07:09:40;6.40;;;2.70;;
62582;SDS011;48641;51.676;5.808;2023-04-28T07:12:05;6.32;;;2.83;;
62582;SDS011;48641;51.676;5.808;2023-04-28T07:14:31;6.18;;;2.65;;
62582;SDS011;48641;51.676;5.808;2023-04-28T07:16:58;6.38;;;3.28;;
62582;SDS011;48641;51.676;5.808;2023-04-28T07:19:23;6.07;;;2.70;;
62582;SDS011;48641;51.676;5.808;2023-04-28T07:21:49;7.00;;;2.70;;
62582;SDS011;48641;51.676;5.808;2023-04-28T07:24:15;5.78;;;2.63;;
62582;SDS011;48641;51.676;5.808;2023-04-28T07:26:40;8.57;;;2.83;;
62582;SDS011;48641;51.676;5.808;2023-04-28T07:29:06;6.88;;;2.85;;
62582;SDS011;48641;51.676;5.808;2023-04-28T07:31:33;8.02;;;3.05;;
62582;SDS011;48641;51.676;5.808;2023-04-28T07:33:58;6.95;;;2.58;;
62582;SDS011;48641;51.676;5.808;2023-04-28T07:36:24;7.18;;;2.90;;
62582;SDS011;48641;51.676;5.808;2023-04-28T07:38:50;6.35;;;2.35;;
62582;SDS011;48641;51.676;5.808;2023-04-28T07:41:16;6.40;;;2.65;;
62582;SDS011;48641;51.676;5.808;2023-04-28T07:43:42;8.73;;;2.72;;
62582;SDS011;48641;51.676;5.808;2023-04-28T07:46:08;6.35;;;2.47;;
62582;SDS011;48641;51.676;5.808;2023-04-28T07:48:34;6.90;;;2.80;;
62582;SDS011;48641;51.676;5.808;2023-04-28T07:51:00;7.07;;;2.40;;
62582;SDS011;48641;51.676;5.808;2023-04-28T07:53:26;5.35;;;2.42;;
62582;SDS011;48641;51.676;5.808;2023-04-28T07:55:53;6.68;;;2.90;;
62582;SDS011;48641;51.676;5.808;2023-04-28T07:58:18;5.43;;;2.17;;
62582;SDS011;48641;51.676;5.808;2023-04-28T08:00:44;7.10;;;2.65;;
62582;SDS011;48641;51.676;5.808;2023-04-28T08:03:10;7.38;;;3.00;;
62582;SDS011;48641;51.676;5.808;2023-04-28T08:05:37;9.00;;;2.65;;
62582;SDS011;48641;51.676;5.808;2023-04-28T08:08:03;7.15;;;2.40;;
62582;SDS011;48641;51.676;5.808;2023-04-28T08:10:29;7.72;;;2.25;;
62582;SDS011;48641;51.676;5.808;2023-04-28T08:12:54;6.95;;;2.72;;
62582;SDS011;48641;51.676;5.808;2023-04-28T08:15:20;4.95;;;2.00;;
62582;SDS011;48641;51.676;5.808;2023-04-28T08:17:45;6.00;;;2.25;;
62582;SDS011;48641;51.676;5.808;2023-04-28T08:20:11;5.80;;;2.55;;
62582;SDS011;48641;51.676;5.808;2023-04-28T08:22:39;5.47;;;2.30;;
62582;SDS011;48641;51.676;5.808;2023-04-28T08:25:05;6.72;;;2.30;;
62582;SDS011;48641;51.676;5.808;2023-04-28T08:27:31;6.95;;;2.33;;
62582;SDS011;48641;51.676;5.808;2023-04-28T08:29:58;5.70;;;2.40;;
62582;SDS011;48641;51.676;5.808;2023-04-28T08:32:23;6.30;;;2.30;;
62582;SDS011;48641;51.676;5.808;2023-04-28T08:34:49;7.22;;;2.58;;
62582;SDS011;48641;51.676;5.808;2023-04-28T08:37:15;7.28;;;2.22;;
62582;SDS011;48641;51.676;5.808;2023-04-28T08:39:40;5.60;;;2.28;;
62582;SDS011;48641;51.676;5.808;2023-04-28T08:42:06;6.45;;;2.80;;
62582;SDS011;48641;51.676;5.808;2023-04-28T08:44:36;5.57;;;2.40;;
62582;SDS011;48641;51.676;5.808;2023-04-28T08:47:11;8.80;;;3.00;;
62582;SDS011;48641;51.676;5.808;2023-04-28T08:49:38;6.13;;;2.40;;
62582;SDS011;48641;51.676;5.808;2023-04-28T08:52:15;5.65;;;2.13;;
62582;SDS011;48641;51.676;5.808;2023-04-28T08:54:41;5.75;;;2.25;;
62582;SDS011;48641;51.676;5.808;2023-04-28T08:57:08;5.95;;;2.25;;
62582;SDS011;48641;51.676;5.808;2023-04-28T08:59:38;5.95;;;2.58;;
62582;SDS011;48641;51.676;5.808;2023-04-28T09:02:06;5.60;;;2.35;;
62582;SDS011;48641;51.676;5.808;2023-04-28T09:04:32;5.53;;;2.28;;
62582;SDS011;48641;51.676;5.808;2023-04-28T09:06:58;5.47;;;2.40;;
62582;SDS011;48641;51.676;5.808;2023-04-28T09:09:25;4.90;;;2.33;;
62582;SDS011;48641;51.676;5.808;2023-04-28T09:14:19;6.45;;;2.58;;
62582;SDS011;48641;51.676;5.808;2023-04-28T09:16:48;4.43;;;2.30;;
62582;SDS011;48641;51.676;5.808;2023-04-28T09:19:14;8.73;;;2.40;;
62582;SDS011;48641;51.676;5.808;2023-04-28T09:21:46;7.55;;;2.45;;
62582;SDS011;48641;51.676;5.808;2023-04-28T09:26:55;5.75;;;2.50;;
62582;SDS011;48641;51.676;5.808;2023-04-28T09:29:22;5.63;;;2.47;;
62582;SDS011;48641;51.676;5.808;2023-04-28T09:31:48;5.53;;;2.30;;
62582;SDS011;48641;51.676;5.808;2023-04-28T09:34:13;5.63;;;2.40;;
62582;SDS011;48641;51.676;5.808;2023-04-28T09:36:39;9.07;;;3.47;;
62582;SDS011;48641;51.676;5.808;2023-04-28T09:39:05;7.10;;;2.33;;
62582;SDS011;48641;51.676;5.808;2023-04-28T09:41:34;5.35;;;2.30;;
62582;SDS011;48641;51.676;5.808;2023-04-28T09:44:16;5.25;;;2.20;;
62582;SDS011;48641;51.676;5.808;2023-04-28T09:46:43;5.47;;;2.25;;
62582;SDS011;48641;51.676;5.808;2023-04-28T09:49:13;5.93;;;2.22;;
62582;SDS011;48641;51.676;5.808;2023-04-28T09:51:39;4.85;;;2.20;;
62582;SDS011;48641;51.676;5.808;2023-04-28T09:54:05;5.65;;;2.50;;
62582;SDS011;48641;51.676;5.808;2023-04-28T09:56:32;6.70;;;2.30;;
62582;SDS011;48641;51.676;5.808;2023-04-28T09:59:02;5.90;;;2.38;;
62582;SDS011;48641;51.676;5.808;2023-04-28T10:01:31;6.10;;;2.50;;
62582;SDS011;48641;51.676;5.808;2023-04-28T10:04:04;6.07;;;2.53;;
62582;SDS011;48641;51.676;5.808;2023-04-28T10:06:32;4.82;;;2.00;;
62582;SDS011;48641;51.676;5.808;2023-04-28T10:11:25;5.80;;;2.38;;
62582;SDS011;48641;51.676;5.808;2023-04-28T10:13:52;9.10;;;2.50;;
62582;SDS011;48641;51.676;5.808;2023-04-28T10:16:19;7.22;;;2.30;;
62582;SDS011;48641;51.676;5.808;2023-04-28T10:18:45;10.75;;;4.85;;
62582;SDS011;48641;51.676;5.808;2023-04-28T10:21:11;11.82;;;5.05;;
62582;SDS011;48641;51.676;5.808;2023-04-28T10:29:30;74.25;;;10.07;;
62582;SDS011;48641;51.676;5.808;2023-04-28T10:34:43;65.63;;;9.10;;
62582;SDS011;48641;51.676;5.808;2023-04-28T10:37:08;67.32;;;8.63;;
62582;SDS011;48641;51.676;5.808;2023-04-28T10:39:35;76.35;;;8.77;;
62582;SDS011;48641;51.676;5.808;2023-04-28T10:42:01;55.42;;;8.15;;
62582;SDS011;48641;51.676;5.808;2023-04-28T10:47:02;55.85;;;6.95;;
62582;SDS011;48641;51.676;5.808;2023-04-28T11:00:37;32.28;;;5.05;;
62582;SDS011;48641;51.676;5.808;2023-04-28T11:03:04;27.45;;;4.80;;
62582;SDS011;48641;51.676;5.808;2023-04-28T11:05:30;34.25;;;5.57;;
62582;SDS011;48641;51.676;5.808;2023-04-28T11:13:41;29.67;;;5.55;;
62582;SDS011;48641;51.676;5.808;2023-04-28T11:16:10;26.42;;;5.53;;
62582;SDS011;48641;51.676;5.808;2023-04-28T11:18:49;27.42;;;4.78;;
62582;SDS011;48641;51.676;5.808;2023-04-28T11:21:20;21.65;;;5.15;;
62582;SDS011;48641;51.676;5.808;2023-04-28T11:23:47;27.92;;;4.93;;
62582;SDS011;48641;51.676;5.808;2023-04-28T11:26:13;20.88;;;5.45;;
62582;SDS011;48641;51.676;5.808;2023-04-28T11:28:52;22.10;;;4.40;;
62582;SDS011;48641;51.676;5.808;2023-04-28T11:31:19;18.95;;;4.43;;
62582;SDS011;48641;51.676;5.808;2023-04-28T11:34:31;15.63;;;4.80;;
62582;SDS011;48641;51.676;5.808;2023-04-28T11:36:42;17.48;;;4.13;;
62582;SDS011;48641;51.676;5.808;2023-04-28T11:39:09;18.15;;;4.00;;
62582;SDS011;48641;51.676;5.808;2023-04-28T11:41:37;19.90;;;4.40;;
62582;SDS011;48641;51.676;5.808;2023-04-28T11:44:11;20.60;;;4.90;;
62582;SDS011;48641;51.676;5.808;2023-04-28T11:46:48;25.00;;;4.45;;
62582;SDS011;48641;51.676;5.808;2023-04-28T11:49:19;16.45;;;4.35;;
62582;SDS011;48641;51.676;5.808;2023-04-28T11:51:45;17.85;;;3.97;;
62582;SDS011;48641;51.676;5.808;2023-04-28T11:54:13;14.13;;;3.80;;
62582;SDS011;48641;51.676;5.808;2023-04-28T11:56:43;21.35;;;4.22;;
62582;SDS011;48641;51.676;5.808;2023-04-28T11:59:10;17.08;;;3.97;;
62582;SDS011;48641;51.676;5.808;2023-04-28T12:09:44;16.00;;;4.13;;
62582;SDS011;48641;51.676;5.808;2023-04-28T12:12:12;14.93;;;4.20;;
62582;SDS011;48641;51.676;5.808;2023-04-28T12:14:55;15.52;;;3.80;;
62582;SDS011;48641;51.676;5.808;2023-04-28T12:20:03;9.63;;;3.28;;
62582;SDS011;48641;51.676;5.808;2023-04-28T12:22:30;11.00;;;3.40;;
62582;SDS011;48641;51.676;5.808;2023-04-28T12:25:17;12.63;;;3.80;;
62582;SDS011;48641;51.676;5.808;2023-04-28T12:27:58;12.80;;;3.63;;
62582;SDS011;48641;51.676;5.808;2023-04-28T12:30:26;11.10;;;5.03;;
62582;SDS011;48641;51.676;5.808;2023-04-28T12:32:53;10.05;;;3.25;;
62582;SDS011;48641;51.676;5.808;2023-04-28T12:35:23;14.85;;;4.00;;
62582;SDS011;48641;51.676;5.808;2023-04-28T12:37:50;14.88;;;4.00;;
62582;SDS011;48641;51.676;5.808;2023-04-28T12:40:17;11.52;;;4.50;;
62582;SDS011;48641;51.676;5.808;2023-04-28T12:42:43;14.30;;;4.32;;
62582;SDS011;48641;51.676;5.808;2023-04-28T12:45:09;14.05;;;4.00;;
62582;SDS011;48641;51.676;5.808;2023-04-28T12:47:35;12.70;;;4.65;;
62582;SDS011;48641;51.676;5.808;2023-04-28T12:50:02;10.50;;;3.95;;
62582;SDS011;48641;51.676;5.808;2023-04-28T12:52:28;15.30;;;3.53;;
62582;SDS011;48641;51.676;5.808;2023-04-28T12:54:57;12.97;;;4.03;;
62582;SDS011;48641;51.676;5.808;2023-04-28T12:57:22;11.93;;;4.43;;
62582;SDS011;48641;51.676;5.808;2023-04-28T12:59:48;11.10;;;4.00;;
62582;SDS011;48641;51.676;5.808;2023-04-28T13:02:14;10.30;;;3.40;;
62582;SDS011;48641;51.676;5.808;2023-04-28T13:04:40;10.00;;;3.65;;
62582;SDS011;48641;51.676;5.808;2023-04-28T15:23:08;6.70;;;2.80;;
62582;SDS011;48641;51.676;5.808;2023-04-28T15:25:34;8.60;;;2.95;;
62582;SDS011;48641;51.676;5.808;2023-04-28T15:28:00;7.10;;;3.25;;
62582;SDS011;48641;51.676;5.808;2023-04-28T15:30:27;10.55;;;3.35;;
62582;SDS011;48641;51.676;5.808;2023-04-28T15:32:53;7.22;;;3.00;;
62582;SDS011;48641;51.676;5.808;2023-04-28T15:35:19;9.55;;;3.17;;
62582;SDS011;48641;51.676;5.808;2023-04-28T15:37:46;7.55;;;3.00;;
62582;SDS011;48641;51.676;5.808;2023-04-28T15:40:12;6.80;;;2.90;;
62582;SDS011;48641;51.676;5.808;2023-04-28T15:42:39;7.25;;;3.05;;
62582;SDS011;48641;51.676;5.808;2023-04-28T15:45:06;9.30;;;3.05;;
62582;SDS011;48641;51.676;5.808;2023-04-28T15:47:34;6.25;;;2.78;;
62582;SDS011;48641;51.676;5.808;2023-04-28T15:50:00;7.35;;;3.00;;
62582;SDS011;48641;51.676;5.808;2023-04-28T15:52:26;6.50;;;3.00;;
62582;SDS011;48641;51.676;5.808;2023-04-28T15:54:53;8.52;;;3.15;;
62582;SDS011;48641;51.676;5.808;2023-04-28T15:57:19;8.70;;;2.85;;
62582;SDS011;48641;51.676;5.808;2023-04-28T15:59:44;6.85;;;2.88;;
62582;SDS011;48641;51.676;5.808;2023-04-28T16:02:10;8.00;;;3.13;;
62582;SDS011;48641;51.676;5.808;2023-04-28T16:04:36;6.50;;;2.85;;
62582;SDS011;48641;51.676;5.808;2023-04-28T16:07:02;6.05;;;2.97;;
62582;SDS011;48641;51.676;5.808;2023-04-28T16:09:28;6.97;;;3.20;;
62582;SDS011;48641;51.676;5.808;2023-04-28T16:11:54;9.20;;;3.25;;
62582;SDS011;48641;51.676;5.808;2023-04-28T16:14:21;6.45;;;2.67;;
62582;SDS011;48641;51.676;5.808;2023-04-28T16:16:47;6.82;;;2.72;;
62582;SDS011;48641;51.676;5.808;2023-04-28T16:19:13;6.97;;;2.80;;
62582;SDS011;48641;51.676;5.808;2023-04-28T16:21:39;7.95;;;3.00;;
62582;SDS011;48641;51.676;5.808;2023-04-28T16:24:05;8.73;;;2.67;;
62582;SDS011;48641;51.676;5.808;2023-04-28T16:26:32;7.22;;;2.72;;
62582;SDS011;48641;51.676;5.808;2023-04-28T16:28:57;8.38;;;3.20;;
62582;SDS011;48641;51.676;5.808;2023-04-28T16:31:23;6.88;;;2.67;;
62582;SDS011;48641;51.676;5.808;2023-04-28T16:33:50;7.18;;;3.13;;
62582;SDS011;48641;51.676;5.808;2023-04-28T16:36:16;8.73;;;3.45;;
62582;SDS011;48641;51.676;5.808;2023-04-28T16:38:42;9.35;;;3.47;;
62582;SDS011;48641;51.676;5.808;2023-04-28T16:41:08;10.68;;;3.00;;
62582;SDS011;48641;51.676;5.808;2023-04-28T16:43:34;9.05;;;2.90;;
62582;SDS011;48641;51.676;5.808;2023-04-28T16:46:02;9.52;;;3.10;;
62582;SDS011;48641;51.676;5.808;2023-04-28T16:48:28;15.15;;;3.67;;
62582;SDS011;48641;51.676;5.808;2023-04-28T16:50:54;8.13;;;3.30;;
62582;SDS011;48641;51.676;5.808;2023-04-28T16:53:20;11.27;;;3.28;;
62582;SDS011;48641;51.676;5.808;2023-04-28T16:55:45;9.90;;;2.90;;
62582;SDS011;48641;51.676;5.808;2023-04-28T16:58:11;8.57;;;3.28;;
62582;SDS011;48641;51.676;5.808;2023-04-28T17:00:37;9.63;;;3.17;;
62582;SDS011;48641;51.676;5.808;2023-04-28T17:03:03;9.38;;;2.67;;
62582;SDS011;48641;51.676;5.808;2023-04-28T17:05:30;8.98;;;3.25;;
62582;SDS011;48641;51.676;5.808;2023-04-28T17:07:56;8.50;;;3.25;;
62582;SDS011;48641;51.676;5.808;2023-04-28T17:10:22;7.68;;;3.03;;
62582;SDS011;48641;51.676;5.808;2023-04-28T17:12:49;9.70;;;2.92;;
62582;SDS011;48641;51.676;5.808;2023-04-28T17:15:15;8.23;;;3.45;;
62582;SDS011;48641;51.676;5.808;2023-04-28T17:17:41;7.57;;;3.25;;
62582;SDS011;48641;51.676;5.808;2023-04-28T17:20:08;9.07;;;3.00;;
62582;SDS011;48641;51.676;5.808;2023-04-28T17:22:34;8.80;;;3.00;;
62582;SDS011;48641;51.676;5.808;2023-04-28T17:25:00;8.93;;;3.30;;
62582;SDS011;48641;51.676;5.808;2023-04-28T17:27:25;8.45;;;3.00;;
62582;SDS011;48641;51.676;5.808;2023-04-28T17:29:51;7.63;;;3.05;;
62582;SDS011;48641;51.676;5.808;2023-04-28T17:32:17;6.95;;;3.08;;
62582;SDS011;48641;51.676;5.808;2023-04-28T17:34:42;7.65;;;2.97;;
62582;SDS011;48641;51.676;5.808;2023-04-28T17:37:08;6.97;;;2.63;;
62582;SDS011;48641;51.676;5.808;2023-04-28T17:39:33;7.65;;;3.03;;
62582;SDS011;48641;51.676;5.808;2023-04-28T17:41:59;8.52;;;3.15;;
62582;SDS011;48641;51.676;5.808;2023-04-28T17:44:26;6.78;;;2.67;;